sensor_id;sensor_type;location;lat;lon;timestamp;temperature;humidity
22471;DHT22;11402;51.374;6.594;2023-07-16T00:00:11;20.40;99.90
22471;DHT22;11402;51.374;6.594;2023-07-16T00:02:37;20.30;99.90
22471;DHT22;11402;51.374;6.594;2023-07-16T00:05:03;20.30;99.90
22471;DHT22;11402;51.374;6.594;2023-07-16T00:07:29;20.30;99.90
22471;DHT22;11402;51.374;6.594;2023-07-16T00:09:55;20.30;99.90
22471;DHT22;11402;51.374;6.594;2023-07-16T00:12:20;20.30;99.90
22471;DHT22;11402;51.374;6.594;2023-07-16T00:14:47;20.30;99.90
22471;DHT22;11402;51.374;6.594;2023-07-16T00:17:13;20.20;99.90
22471;DHT22;11402;51.374;6.594;2023-07-16T00:19:39;20.10;99.90
22471;DHT22;11402;51.374;6.594;2023-07-16T00:22:04;20.10;99.90
22471;DHT22;11402;51.374;6.594;2023-07-16T00:24:30;20.00;99.90
22471;DHT22;11402;51.374;6.594;2023-07-16T00:26:56;20.00;99.90
22471;DHT22;11402;51.374;6.594;2023-07-16T00:29:22;20.10;99.90
22471;DHT22;11402;51.374;6.594;2023-07-16T00:31:47;19.90;99.90
22471;DHT22;11402;51.374;6.594;2023-07-16T00:34:13;19.90;99.90
22471;DHT22;11402;51.374;6.594;2023-07-16T00:36:39;19.70;99.90
22471;DHT22;11402;51.374;6.594;2023-07-16T00:39:05;19.80;99.90
22471;DHT22;11402;51.374;6.594;2023-07-16T00:41:30;19.90;99.90
22471;DHT22;11402;51.374;6.594;2023-07-16T00:43:56;19.90;99.90
22471;DHT22;11402;51.374;6.594;2023-07-16T00:46:23;20.00;99.90
22471;DHT22;11402;51.374;6.594;2023-07-16T00:48:49;19.80;99.90
22471;DHT22;11402;51.374;6.594;2023-07-16T00:51:14;20.00;99.90
22471;DHT22;11402;51.374;6.594;2023-07-16T00:53:41;19.70;99.90
22471;DHT22;11402;51.374;6.594;2023-07-16T00:56:08;19.50;99.90
22471;DHT22;11402;51.374;6.594;2023-07-16T00:58:34;19.40;99.90
22471;DHT22;11402;51.374;6.594;2023-07-16T01:01:00;19.50;99.90
22471;DHT22;11402;51.374;6.594;2023-07-16T01:03:26;19.30;99.90
22471;DHT22;11402;51.374;6.594;2023-07-16T01:08:47;18.90;99.90
22471;DHT22;11402;51.374;6.594;2023-07-16T01:11:15;18.80;99.90
22471;DHT22;11402;51.374;6.594;2023-07-16T01:13:41;19.00;99.90
22471;DHT22;11402;51.374;6.594;2023-07-16T01:16:18;18.90;99.90
22471;DHT22;11402;51.374;6.594;2023-07-16T01:18:45;19.10;99.90
22471;DHT22;11402;51.374;6.594;2023-07-16T01:21:10;19.20;99.90
22471;DHT22;11402;51.374;6.594;2023-07-16T01:23:50;19.20;99.90
22471;DHT22;11402;51.374;6.594;2023-07-16T01:31:43;19.30;99.90
22471;DHT22;11402;51.374;6.594;2023-07-16T01:34:10;19.30;99.90
22471;DHT22;11402;51.374;6.594;2023-07-16T01:36:37;19.20;99.90
22471;DHT22;11402;51.374;6.594;2023-07-16T01:39:04;19.10;99.90
22471;DHT22;11402;51.374;6.594;2023-07-16T01:41:30;19.20;99.90
22471;DHT22;11402;51.374;6.594;2023-07-16T01:43:56;19.30;99.90
22471;DHT22;11402;51.374;6.594;2023-07-16T01:46:21;19.20;99.90
22471;DHT22;11402;51.374;6.594;2023-07-16T01:48:47;19.20;99.90
22471;DHT22;11402;51.374;6.594;2023-07-16T01:51:12;19.20;99.90
22471;DHT22;11402;51.374;6.594;2023-07-16T01:53:41;19.30;99.90
22471;DHT22;11402;51.374;6.594;2023-07-16T01:56:07;19.20;99.90
22471;DHT22;11402;51.374;6.594;2023-07-16T01:58:32;19.20;99.90
22471;DHT22;11402;51.374;6.594;2023-07-16T02:00:58;19.00;99.90
22471;DHT22;11402;51.374;6.594;2023-07-16T02:03:24;18.80;99.90
22471;DHT22;11402;51.374;6.594;2023-07-16T02:05:49;18.50;99.90
22471;DHT22;11402;51.374;6.594;2023-07-16T02:08:16;18.40;99.90
22471;DHT22;11402;51.374;6.594;2023-07-16T02:10:42;18.50;99.90
22471;DHT22;11402;51.374;6.594;2023-07-16T02:13:07;18.60;99.90
22471;DHT22;11402;51.374;6.594;2023-07-16T02:15:33;18.50;99.90
22471;DHT22;11402;51.374;6.594;2023-07-16T02:17:59;18.50;99.90
22471;DHT22;11402;51.374;6.594;2023-07-16T02:20:24;18.60;99.90
22471;DHT22;11402;51.374;6.594;2023-07-16T02:22:50;18.50;99.90
22471;DHT22;11402;51.374;6.594;2023-07-16T02:25:15;18.30;99.90
22471;DHT22;11402;51.374;6.594;2023-07-16T02:27:41;18.20;99.90
22471;DHT22;11402;51.374;6.594;2023-07-16T02:30:07;18.10;99.90
22471;DHT22;11402;51.374;6.594;2023-07-16T02:32:33;18.00;99.90
22471;DHT22;11402;51.374;6.594;2023-07-16T02:34:59;18.20;99.90
22471;DHT22;11402;51.374;6.594;2023-07-16T02:37:25;18.30;99.90
22471;DHT22;11402;51.374;6.594;2023-07-16T02:39:50;18.20;99.90
22471;DHT22;11402;51.374;6.594;2023-07-16T02:42:16;18.20;99.90
22471;DHT22;11402;51.374;6.594;2023-07-16T02:44:42;18.10;99.90
22471;DHT22;11402;51.374;6.594;2023-07-16T02:47:13;18.00;99.90
22471;DHT22;11402;51.374;6.594;2023-07-16T02:49:39;18.10;99.90
22471;DHT22;11402;51.374;6.594;2023-07-16T02:52:05;17.90;99.90
22471;DHT22;11402;51.374;6.594;2023-07-16T02:54:31;17.70;99.90
22471;DHT22;11402;51.374;6.594;2023-07-16T02:56:57;17.70;99.90
22471;DHT22;11402;51.374;6.594;2023-07-16T02:59:23;17.80;99.90
22471;DHT22;11402;51.374;6.594;2023-07-16T03:01:49;17.70;99.90
22471;DHT22;11402;51.374;6.594;2023-07-16T03:04:15;17.60;99.90
22471;DHT22;11402;51.374;6.594;2023-07-16T03:06:40;17.80;99.90
22471;DHT22;11402;51.374;6.594;2023-07-16T03:09:06;17.70;99.90
22471;DHT22;11402;51.374;6.594;2023-07-16T03:11:31;17.60;99.90
22471;DHT22;11402;51.374;6.594;2023-07-16T03:13:57;17.70;99.90
22471;DHT22;11402;51.374;6.594;2023-07-16T03:16:23;17.70;99.90
22471;DHT22;11402;51.374;6.594;2023-07-16T03:18:48;17.80;99.90
22471;DHT22;11402;51.374;6.594;2023-07-16T03:21:14;17.70;99.90
22471;DHT22;11402;51.374;6.594;2023-07-16T03:23:40;17.70;99.90
22471;DHT22;11402;51.374;6.594;2023-07-16T03:26:05;17.80;99.90
22471;DHT22;11402;51.374;6.594;2023-07-16T03:28:31;17.80;99.90
22471;DHT22;11402;51.374;6.594;2023-07-16T03:30:57;17.80;99.90
22471;DHT22;11402;51.374;6.594;2023-07-16T03:33:22;17.90;99.90
22471;DHT22;11402;51.374;6.594;2023-07-16T03:35:49;17.90;99.90
22471;DHT22;11402;51.374;6.594;2023-07-16T03:38:15;18.00;99.90
22471;DHT22;11402;51.374;6.594;2023-07-16T03:40:45;17.90;99.90
22471;DHT22;11402;51.374;6.594;2023-07-16T03:43:11;17.90;99.90
22471;DHT22;11402;51.374;6.594;2023-07-16T03:45:37;17.80;99.90
22471;DHT22;11402;51.374;6.594;2023-07-16T03:48:03;17.90;99.90
22471;DHT22;11402;51.374;6.594;2023-07-16T03:50:28;17.90;99.90
22471;DHT22;11402;51.374;6.594;2023-07-16T03:52:54;17.80;99.90
22471;DHT22;11402;51.374;6.594;2023-07-16T03:55:19;17.90;99.90
22471;DHT22;11402;51.374;6.594;2023-07-16T03:57:45;17.80;99.90
22471;DHT22;11402;51.374;6.594;2023-07-16T04:00:11;17.60;99.90
22471;DHT22;11402;51.374;6.594;2023-07-16T04:02:36;17.50;99.90
22471;DHT22;11402;51.374;6.594;2023-07-16T04:05:03;17.50;99.90
22471;DHT22;11402;51.374;6.594;2023-07-16T04:07:28;17.60;99.90
22471;DHT22;11402;51.374;6.594;2023-07-16T04:09:54;17.60;99.90
22471;DHT22;11402;51.374;6.594;2023-07-16T04:12:20;17.60;99.90
22471;DHT22;11402;51.374;6.594;2023-07-16T04:14:46;17.70;99.90
22471;DHT22;11402;51.374;6.594;2023-07-16T04:17:12;17.70;99.90
22471;DHT22;11402;51.374;6.594;2023-07-16T04:19:38;17.70;99.90
22471;DHT22;11402;51.374;6.594;2023-07-16T04:22:04;17.80;99.90
22471;DHT22;11402;51.374;6.594;2023-07-16T04:24:30;17.50;99.90
22471;DHT22;11402;51.374;6.594;2023-07-16T04:26:55;17.50;99.90
22471;DHT22;11402;51.374;6.594;2023-07-16T04:29:21;17.50;99.90
22471;DHT22;11402;51.374;6.594;2023-07-16T04:31:47;17.60;99.90
22471;DHT22;11402;51.374;6.594;2023-07-16T04:34:13;17.60;99.90
22471;DHT22;11402;51.374;6.594;2023-07-16T04:36:39;17.40;99.90
22471;DHT22;11402;51.374;6.594;2023-07-16T04:39:04;17.70;99.90
22471;DHT22;11402;51.374;6.594;2023-07-16T04:41:30;17.40;99.90
22471;DHT22;11402;51.374;6.594;2023-07-16T04:43:56;17.60;99.90
22471;DHT22;11402;51.374;6.594;2023-07-16T04:46:21;17.70;99.90
22471;DHT22;11402;51.374;6.594;2023-07-16T04:48:47;17.70;99.90
22471;DHT22;11402;51.374;6.594;2023-07-16T04:51:13;17.80;99.90
22471;DHT22;11402;51.374;6.594;2023-07-16T04:53:39;17.80;99.90
22471;DHT22;11402;51.374;6.594;2023-07-16T04:56:04;17.80;99.90
22471;DHT22;11402;51.374;6.594;2023-07-16T04:58:35;17.90;99.90
22471;DHT22;11402;51.374;6.594;2023-07-16T05:01:01;17.90;99.90
22471;DHT22;11402;51.374;6.594;2023-07-16T05:03:26;17.90;99.90
22471;DHT22;11402;51.374;6.594;2023-07-16T05:05:52;18.00;99.90
22471;DHT22;11402;51.374;6.594;2023-07-16T05:08:17;18.10;99.90
22471;DHT22;11402;51.374;6.594;2023-07-16T05:10:43;18.10;99.90
22471;DHT22;11402;51.374;6.594;2023-07-16T05:13:08;18.10;99.90
22471;DHT22;11402;51.374;6.594;2023-07-16T05:15:34;18.10;99.90
22471;DHT22;11402;51.374;6.594;2023-07-16T05:18:00;18.20;99.90
22471;DHT22;11402;51.374;6.594;2023-07-16T05:20:25;18.30;99.90
22471;DHT22;11402;51.374;6.594;2023-07-16T05:22:51;18.30;99.90
22471;DHT22;11402;51.374;6.594;2023-07-16T05:25:16;18.20;99.90
22471;DHT22;11402;51.374;6.594;2023-07-16T05:27:42;18.30;99.90
22471;DHT22;11402;51.374;6.594;2023-07-16T05:30:08;18.40;99.90
22471;DHT22;11402;51.374;6.594;2023-07-16T05:32:34;18.40;99.90
22471;DHT22;11402;51.374;6.594;2023-07-16T05:35:00;18.60;99.90
22471;DHT22;11402;51.374;6.594;2023-07-16T05:37:26;18.60;99.90
22471;DHT22;11402;51.374;6.594;2023-07-16T05:39:52;18.50;99.90
22471;DHT22;11402;51.374;6.594;2023-07-16T05:42:17;18.60;99.90
22471;DHT22;11402;51.374;6.594;2023-07-16T05:44:43;18.70;99.90
22471;DHT22;11402;51.374;6.594;2023-07-16T05:47:10;18.80;99.90
22471;DHT22;11402;51.374;6.594;2023-07-16T05:49:35;19.00;99.90
22471;DHT22;11402;51.374;6.594;2023-07-16T05:52:01;19.10;99.90
22471;DHT22;11402;51.374;6.594;2023-07-16T05:54:27;19.10;99.90
22471;DHT22;11402;51.374;6.594;2023-07-16T05:56:52;19.00;99.90
22471;DHT22;11402;51.374;6.594;2023-07-16T05:59:18;19.00;99.90
22471;DHT22;11402;51.374;6.594;2023-07-16T06:01:44;19.10;99.90
22471;DHT22;11402;51.374;6.594;2023-07-16T06:04:10;19.20;99.90
22471;DHT22;11402;51.374;6.594;2023-07-16T06:06:35;19.30;99.90
22471;DHT22;11402;51.374;6.594;2023-07-16T06:09:01;19.30;99.90
22471;DHT22;11402;51.374;6.594;2023-07-16T06:11:27;19.30;99.90
22471;DHT22;11402;51.374;6.594;2023-07-16T06:13:55;19.40;99.90
22471;DHT22;11402;51.374;6.594;2023-07-16T06:16:21;19.60;99.90
22471;DHT22;11402;51.374;6.594;2023-07-16T06:18:46;19.60;99.90
22471;DHT22;11402;51.374;6.594;2023-07-16T06:21:12;19.80;99.90
22471;DHT22;11402;51.374;6.594;2023-07-16T06:23:38;19.80;99.90
22471;DHT22;11402;51.374;6.594;2023-07-16T06:26:04;19.60;99.90
22471;DHT22;11402;51.374;6.594;2023-07-16T06:28:29;19.70;99.90
22471;DHT22;11402;51.374;6.594;2023-07-16T06:30:55;19.90;99.90
22471;DHT22;11402;51.374;6.594;2023-07-16T06:33:20;19.90;99.90
22471;DHT22;11402;51.374;6.594;2023-07-16T06:35:47;19.90;99.90
22471;DHT22;11402;51.374;6.594;2023-07-16T06:38:13;20.00;99.90
22471;DHT22;11402;51.374;6.594;2023-07-16T06:40:39;20.00;99.90
22471;DHT22;11402;51.374;6.594;2023-07-16T06:43:05;20.20;99.90
22471;DHT22;11402;51.374;6.594;2023-07-16T06:45:31;20.10;99.90
22471;DHT22;11402;51.374;6.594;2023-07-16T06:47:56;20.10;99.90
22471;DHT22;11402;51.374;6.594;2023-07-16T06:50:22;20.20;99.90
22471;DHT22;11402;51.374;6.594;2023-07-16T06:52:47;20.40;99.90
22471;DHT22;11402;51.374;6.594;2023-07-16T06:55:13;20.30;99.90
22471;DHT22;11402;51.374;6.594;2023-07-16T06:57:39;20.40;99.90
22471;DHT22;11402;51.374;6.594;2023-07-16T07:00:06;20.50;99.90
22471;DHT22;11402;51.374;6.594;2023-07-16T07:02:32;20.30;99.90
22471;DHT22;11402;51.374;6.594;2023-07-16T07:04:57;20.40;99.90
22471;DHT22;11402;51.374;6.594;2023-07-16T07:07:24;20.40;99.90
22471;DHT22;11402;51.374;6.594;2023-07-16T07:09:50;20.30;99.90
22471;DHT22;11402;51.374;6.594;2023-07-16T07:12:15;20.40;99.90
22471;DHT22;11402;51.374;6.594;2023-07-16T07:14:41;20.40;99.90
22471;DHT22;11402;51.374;6.594;2023-07-16T07:17:06;20.40;99.90
22471;DHT22;11402;51.374;6.594;2023-07-16T07:19:32;20.30;99.90
22471;DHT22;11402;51.374;6.594;2023-07-16T07:21:58;20.50;99.90
22471;DHT22;11402;51.374;6.594;2023-07-16T07:24:24;20.50;99.90
22471;DHT22;11402;51.374;6.594;2023-07-16T07:26:49;20.50;99.90
22471;DHT22;11402;51.374;6.594;2023-07-16T07:29:15;20.40;99.90
22471;DHT22;11402;51.374;6.594;2023-07-16T07:31:41;20.60;99.90
22471;DHT22;11402;51.374;6.594;2023-07-16T07:34:06;20.60;99.90
22471;DHT22;11402;51.374;6.594;2023-07-16T07:36:32;20.70;99.90
22471;DHT22;11402;51.374;6.594;2023-07-16T07:38:57;20.80;99.90
22471;DHT22;11402;51.374;6.594;2023-07-16T07:41:23;20.80;99.90
22471;DHT22;11402;51.374;6.594;2023-07-16T07:43:49;20.80;99.90
22471;DHT22;11402;51.374;6.594;2023-07-16T07:46:14;20.90;99.90
22471;DHT22;11402;51.374;6.594;2023-07-16T07:48:40;20.90;99.90
22471;DHT22;11402;51.374;6.594;2023-07-16T07:51:05;21.10;99.90
22471;DHT22;11402;51.374;6.594;2023-07-16T07:53:31;21.10;99.90
22471;DHT22;11402;51.374;6.594;2023-07-16T07:55:57;21.10;99.90
22471;DHT22;11402;51.374;6.594;2023-07-16T07:58:23;21.20;99.90
22471;DHT22;11402;51.374;6.594;2023-07-16T08:00:48;21.30;99.90
22471;DHT22;11402;51.374;6.594;2023-07-16T08:03:14;21.40;99.90
22471;DHT22;11402;51.374;6.594;2023-07-16T08:05:39;21.40;99.90
22471;DHT22;11402;51.374;6.594;2023-07-16T08:08:05;21.60;99.90
22471;DHT22;11402;51.374;6.594;2023-07-16T08:10:31;21.60;99.90
22471;DHT22;11402;51.374;6.594;2023-07-16T08:12:56;21.60;99.90
22471;DHT22;11402;51.374;6.594;2023-07-16T08:15:22;21.60;99.90
22471;DHT22;11402;51.374;6.594;2023-07-16T08:17:47;21.50;99.90
22471;DHT22;11402;51.374;6.594;2023-07-16T08:20:13;21.40;99.90
22471;DHT22;11402;51.374;6.594;2023-07-16T08:22:39;21.30;99.90
22471;DHT22;11402;51.374;6.594;2023-07-16T08:25:06;21.50;99.90
22471;DHT22;11402;51.374;6.594;2023-07-16T08:27:34;21.40;99.90
22471;DHT22;11402;51.374;6.594;2023-07-16T08:30:00;21.50;99.90
22471;DHT22;11402;51.374;6.594;2023-07-16T08:32:25;21.50;99.90
22471;DHT22;11402;51.374;6.594;2023-07-16T08:34:51;21.60;99.90
22471;DHT22;11402;51.374;6.594;2023-07-16T08:37:17;21.50;99.90
22471;DHT22;11402;51.374;6.594;2023-07-16T08:39:42;21.50;99.90
22471;DHT22;11402;51.374;6.594;2023-07-16T08:42:09;21.30;99.90
22471;DHT22;11402;51.374;6.594;2023-07-16T08:44:37;21.30;99.90
22471;DHT22;11402;51.374;6.594;2023-07-16T08:47:04;21.40;99.90
22471;DHT22;11402;51.374;6.594;2023-07-16T08:49:31;21.50;99.90
22471;DHT22;11402;51.374;6.594;2023-07-16T08:51:59;21.60;99.90
22471;DHT22;11402;51.374;6.594;2023-07-16T08:54:26;21.70;99.90
22471;DHT22;11402;51.374;6.594;2023-07-16T08:56:51;21.70;99.90
22471;DHT22;11402;51.374;6.594;2023-07-16T08:59:18;21.70;99.90
22471;DHT22;11402;51.374;6.594;2023-07-16T09:01:46;21.70;99.90
22471;DHT22;11402;51.374;6.594;2023-07-16T09:04:12;21.70;99.90
22471;DHT22;11402;51.374;6.594;2023-07-16T09:06:38;21.90;99.90
22471;DHT22;11402;51.374;6.594;2023-07-16T09:09:04;22.10;99.90
22471;DHT22;11402;51.374;6.594;2023-07-16T09:11:29;22.40;99.90
22471;DHT22;11402;51.374;6.594;2023-07-16T09:13:55;22.60;99.90
22471;DHT22;11402;51.374;6.594;2023-07-16T09:16:21;22.70;99.90
22471;DHT22;11402;51.374;6.594;2023-07-16T09:18:47;22.60;99.90
22471;DHT22;11402;51.374;6.594;2023-07-16T09:21:13;22.40;99.90
22471;DHT22;11402;51.374;6.594;2023-07-16T09:23:39;22.50;99.90
22471;DHT22;11402;51.374;6.594;2023-07-16T09:26:04;22.50;99.90
22471;DHT22;11402;51.374;6.594;2023-07-16T09:28:31;22.60;99.90
22471;DHT22;11402;51.374;6.594;2023-07-16T09:31:03;22.70;99.90
22471;DHT22;11402;51.374;6.594;2023-07-16T09:33:31;22.50;99.90
22471;DHT22;11402;51.374;6.594;2023-07-16T09:35:57;22.40;99.90
22471;DHT22;11402;51.374;6.594;2023-07-16T09:38:23;22.40;99.90
22471;DHT22;11402;51.374;6.594;2023-07-16T09:40:52;22.40;99.90
22471;DHT22;11402;51.374;6.594;2023-07-16T09:43:19;22.40;99.90
22471;DHT22;11402;51.374;6.594;2023-07-16T09:45:46;22.50;99.90
22471;DHT22;11402;51.374;6.594;2023-07-16T09:48:13;22.40;99.90
22471;DHT22;11402;51.374;6.594;2023-07-16T09:50:45;22.30;99.90
22471;DHT22;11402;51.374;6.594;2023-07-16T09:53:15;22.40;99.90
22471;DHT22;11402;51.374;6.594;2023-07-16T09:55:41;22.80;99.90
22471;DHT22;11402;51.374;6.594;2023-07-16T09:58:10;22.90;99.90
22471;DHT22;11402;51.374;6.594;2023-07-16T10:00:37;22.70;99.90
22471;DHT22;11402;51.374;6.594;2023-07-16T10:03:07;22.80;99.90
22471;DHT22;11402;51.374;6.594;2023-07-16T10:05:36;22.90;99.90
22471;DHT22;11402;51.374;6.594;2023-07-16T10:08:02;22.90;99.90
22471;DHT22;11402;51.374;6.594;2023-07-16T10:10:47;22.90;99.90
22471;DHT22;11402;51.374;6.594;2023-07-16T10:13:17;22.90;99.90
22471;DHT22;11402;51.374;6.594;2023-07-16T10:15:58;23.10;99.90
22471;DHT22;11402;51.374;6.594;2023-07-16T10:20:53;23.30;99.90
22471;DHT22;11402;51.374;6.594;2023-07-16T10:23:19;23.20;99.90
22471;DHT22;11402;51.374;6.594;2023-07-16T10:26:01;23.10;99.90
22471;DHT22;11402;51.374;6.594;2023-07-16T10:28:31;23.10;99.90
22471;DHT22;11402;51.374;6.594;2023-07-16T10:30:57;23.10;99.90
22471;DHT22;11402;51.374;6.594;2023-07-16T10:33:23;23.30;99.90
22471;DHT22;11402;51.374;6.594;2023-07-16T10:35:48;23.30;99.90
22471;DHT22;11402;51.374;6.594;2023-07-16T10:38:14;23.20;99.90
22471;DHT22;11402;51.374;6.594;2023-07-16T10:40:41;23.10;99.90
22471;DHT22;11402;51.374;6.594;2023-07-16T10:43:06;23.10;99.90
22471;DHT22;11402;51.374;6.594;2023-07-16T10:45:33;23.20;99.90
22471;DHT22;11402;51.374;6.594;2023-07-16T10:47:59;23.40;99.90
22471;DHT22;11402;51.374;6.594;2023-07-16T10:50:24;23.60;99.90
22471;DHT22;11402;51.374;6.594;2023-07-16T10:52:55;23.50;99.90
22471;DHT22;11402;51.374;6.594;2023-07-16T10:55:21;23.30;99.90
22471;DHT22;11402;51.374;6.594;2023-07-16T10:57:48;23.30;99.90
22471;DHT22;11402;51.374;6.594;2023-07-16T11:00:17;23.30;99.90
22471;DHT22;11402;51.374;6.594;2023-07-16T11:02:44;23.50;99.90
22471;DHT22;11402;51.374;6.594;2023-07-16T11:05:13;23.50;99.90
22471;DHT22;11402;51.374;6.594;2023-07-16T11:07:46;23.30;99.90
22471;DHT22;11402;51.374;6.594;2023-07-16T11:10:12;23.60;99.90
22471;DHT22;11402;51.374;6.594;2023-07-16T11:12:41;23.60;99.90
22471;DHT22;11402;51.374;6.594;2023-07-16T11:15:07;23.60;99.90
22471;DHT22;11402;51.374;6.594;2023-07-16T11:17:33;23.40;99.90
22471;DHT22;11402;51.374;6.594;2023-07-16T11:20:00;23.10;99.90
22471;DHT22;11402;51.374;6.594;2023-07-16T11:22:27;23.10;99.90
22471;DHT22;11402;51.374;6.594;2023-07-16T11:24:54;23.10;99.90
22471;DHT22;11402;51.374;6.594;2023-07-16T11:27:27;23.10;99.90
22471;DHT22;11402;51.374;6.594;2023-07-16T11:29:55;23.10;99.90
22471;DHT22;11402;51.374;6.594;2023-07-16T11:32:45;22.90;99.90
22471;DHT22;11402;51.374;6.594;2023-07-16T11:35:16;23.00;99.90
22471;DHT22;11402;51.374;6.594;2023-07-16T11:37:42;23.40;99.90
22471;DHT22;11402;51.374;6.594;2023-07-16T11:40:09;23.60;99.90
22471;DHT22;11402;51.374;6.594;2023-07-16T11:42:39;23.50;99.90
22471;DHT22;11402;51.374;6.594;2023-07-16T11:45:18;23.40;99.90
22471;DHT22;11402;51.374;6.594;2023-07-16T11:47:45;23.50;99.90
22471;DHT22;11402;51.374;6.594;2023-07-16T11:50:11;23.50;99.90
22471;DHT22;11402;51.374;6.594;2023-07-16T11:52:36;23.50;99.90
22471;DHT22;11402;51.374;6.594;2023-07-16T11:55:03;23.30;99.90
22471;DHT22;11402;51.374;6.594;2023-07-16T11:57:30;23.20;99.90
22471;DHT22;11402;51.374;6.594;2023-07-16T11:59:56;23.10;99.90
22471;DHT22;11402;51.374;6.594;2023-07-16T12:02:22;23.20;99.90
22471;DHT22;11402;51.374;6.594;2023-07-16T12:04:48;23.40;99.90
22471;DHT22;11402;51.374;6.594;2023-07-16T12:07:14;23.50;99.90
22471;DHT22;11402;51.374;6.594;2023-07-16T12:09:40;23.40;99.90
22471;DHT22;11402;51.374;6.594;2023-07-16T12:12:06;23.30;99.90
22471;DHT22;11402;51.374;6.594;2023-07-16T12:14:32;23.20;99.90
22471;DHT22;11402;51.374;6.594;2023-07-16T12:16:58;23.20;99.90
22471;DHT22;11402;51.374;6.594;2023-07-16T12:19:24;23.10;99.90
22471;DHT22;11402;51.374;6.594;2023-07-16T12:21:50;23.20;99.90
22471;DHT22;11402;51.374;6.594;2023-07-16T12:24:16;23.20;99.90
22471;DHT22;11402;51.374;6.594;2023-07-16T12:26:41;23.20;99.90
22471;DHT22;11402;51.374;6.594;2023-07-16T12:29:07;23.40;99.90
22471;DHT22;11402;51.374;6.594;2023-07-16T12:31:33;23.30;99.90
22471;DHT22;11402;51.374;6.594;2023-07-16T12:33:59;23.30;99.90
22471;DHT22;11402;51.374;6.594;2023-07-16T12:36:27;23.30;99.90
22471;DHT22;11402;51.374;6.594;2023-07-16T12:38:53;23.10;99.90
22471;DHT22;11402;51.374;6.594;2023-07-16T12:41:18;23.10;99.90
22471;DHT22;11402;51.374;6.594;2023-07-16T12:43:44;23.20;99.90
22471;DHT22;11402;51.374;6.594;2023-07-16T12:46:09;23.20;99.90
22471;DHT22;11402;51.374;6.594;2023-07-16T12:48:35;23.20;99.90
22471;DHT22;11402;51.374;6.594;2023-07-16T12:51:00;23.30;99.90
22471;DHT22;11402;51.374;6.594;2023-07-16T12:53:26;23.20;99.90
22471;DHT22;11402;51.374;6.594;2023-07-16T12:55:52;23.20;99.90
22471;DHT22;11402;51.374;6.594;2023-07-16T12:58:18;23.10;99.90
22471;DHT22;11402;51.374;6.594;2023-07-16T13:00:44;23.30;99.90
22471;DHT22;11402;51.374;6.594;2023-07-16T13:03:10;23.30;99.90
22471;DHT22;11402;51.374;6.594;2023-07-16T13:05:40;23.40;99.90
22471;DHT22;11402;51.374;6.594;2023-07-16T13:08:06;23.50;99.90
22471;DHT22;11402;51.374;6.594;2023-07-16T13:10:31;23.50;99.90
22471;DHT22;11402;51.374;6.594;2023-07-16T13:12:57;23.80;99.90
22471;DHT22;11402;51.374;6.594;2023-07-16T13:15:23;23.90;99.90
22471;DHT22;11402;51.374;6.594;2023-07-16T13:17:48;24.10;99.90
22471;DHT22;11402;51.374;6.594;2023-07-16T13:20:15;24.20;99.90
22471;DHT22;11402;51.374;6.594;2023-07-16T13:22:40;24.20;99.90
22471;DHT22;11402;51.374;6.594;2023-07-16T13:25:06;24.20;99.90
22471;DHT22;11402;51.374;6.594;2023-07-16T13:27:32;24.20;99.90
22471;DHT22;11402;51.374;6.594;2023-07-16T13:29:58;24.10;99.90
22471;DHT22;11402;51.374;6.594;2023-07-16T13:32:23;24.30;99.90
22471;DHT22;11402;51.374;6.594;2023-07-16T13:34:49;24.30;99.90
22471;DHT22;11402;51.374;6.594;2023-07-16T13:37:15;24.40;99.90
22471;DHT22;11402;51.374;6.594;2023-07-16T13:39:41;24.50;99.90
22471;DHT22;11402;51.374;6.594;2023-07-16T13:42:06;24.50;99.90
22471;DHT22;11402;51.374;6.594;2023-07-16T13:44:35;24.70;99.90
22471;DHT22;11402;51.374;6.594;2023-07-16T13:47:01;24.80;99.90
22471;DHT22;11402;51.374;6.594;2023-07-16T13:49:26;24.80;99.90
22471;DHT22;11402;51.374;6.594;2023-07-16T13:51:52;24.70;99.90
22471;DHT22;11402;51.374;6.594;2023-07-16T13:54:17;24.80;99.90
22471;DHT22;11402;51.374;6.594;2023-07-16T13:56:44;24.80;99.90
22471;DHT22;11402;51.374;6.594;2023-07-16T13:59:09;24.80;99.90
22471;DHT22;11402;51.374;6.594;2023-07-16T14:01:38;24.90;99.90
22471;DHT22;11402;51.374;6.594;2023-07-16T14:04:04;25.00;99.90
22471;DHT22;11402;51.374;6.594;2023-07-16T14:06:30;24.90;99.90
22471;DHT22;11402;51.374;6.594;2023-07-16T14:08:55;24.80;99.90
22471;DHT22;11402;51.374;6.594;2023-07-16T14:11:22;24.80;99.90
22471;DHT22;11402;51.374;6.594;2023-07-16T14:13:48;24.90;99.90
22471;DHT22;11402;51.374;6.594;2023-07-16T14:16:19;25.10;99.90
22471;DHT22;11402;51.374;6.594;2023-07-16T14:18:45;25.20;99.90
22471;DHT22;11402;51.374;6.594;2023-07-16T14:21:10;25.00;99.90
22471;DHT22;11402;51.374;6.594;2023-07-16T14:23:36;25.10;99.90
22471;DHT22;11402;51.374;6.594;2023-07-16T14:26:02;25.20;99.90
22471;DHT22;11402;51.374;6.594;2023-07-16T14:28:28;25.30;99.90
22471;DHT22;11402;51.374;6.594;2023-07-16T14:30:54;25.10;99.90
22471;DHT22;11402;51.374;6.594;2023-07-16T14:33:19;24.90;99.90
22471;DHT22;11402;51.374;6.594;2023-07-16T14:35:45;24.70;99.90
22471;DHT22;11402;51.374;6.594;2023-07-16T14:38:10;24.70;99.90
22471;DHT22;11402;51.374;6.594;2023-07-16T14:40:36;24.80;99.90
22471;DHT22;11402;51.374;6.594;2023-07-16T14:43:04;24.80;99.90
22471;DHT22;11402;51.374;6.594;2023-07-16T14:45:31;24.70;99.90
22471;DHT22;11402;51.374;6.594;2023-07-16T14:47:56;24.70;99.90
22471;DHT22;11402;51.374;6.594;2023-07-16T14:50:22;24.70;99.90
22471;DHT22;11402;51.374;6.594;2023-07-16T14:52:48;24.70;99.90
22471;DHT22;11402;51.374;6.594;2023-07-16T14:55:14;24.70;99.90
22471;DHT22;11402;51.374;6.594;2023-07-16T14:57:40;24.90;99.90
22471;DHT22;11402;51.374;6.594;2023-07-16T15:00:07;25.00;99.90
22471;DHT22;11402;51.374;6.594;2023-07-16T15:02:36;25.00;99.90
22471;DHT22;11402;51.374;6.594;2023-07-16T15:05:02;24.80;99.90
22471;DHT22;11402;51.374;6.594;2023-07-16T15:07:30;24.80;99.90
22471;DHT22;11402;51.374;6.594;2023-07-16T15:09:55;24.80;99.90
22471;DHT22;11402;51.374;6.594;2023-07-16T15:12:21;24.90;99.90
22471;DHT22;11402;51.374;6.594;2023-07-16T15:14:47;24.80;99.90
22471;DHT22;11402;51.374;6.594;2023-07-16T15:17:12;24.80;99.90
22471;DHT22;11402;51.374;6.594;2023-07-16T15:19:39;24.80;99.90
22471;DHT22;11402;51.374;6.594;2023-07-16T15:22:06;24.70;99.90
22471;DHT22;11402;51.374;6.594;2023-07-16T15:24:32;24.70;99.90
22471;DHT22;11402;51.374;6.594;2023-07-16T15:26:57;24.70;99.90
22471;DHT22;11402;51.374;6.594;2023-07-16T15:29:23;24.80;99.90
22471;DHT22;11402;51.374;6.594;2023-07-16T15:31:49;24.80;99.90
22471;DHT22;11402;51.374;6.594;2023-07-16T15:34:14;24.90;99.90